createdAt,value
2017-07-17T00:00:24.446Z,937.86
2017-07-17T00:00:52.256Z,937.86
2017-07-17T00:01:20.458Z,937.87
2017-07-17T00:01:48.506Z,937.85
2017-07-17T00:02:16.542Z,937.85
2017-07-17T00:02:44.761Z,937.89
2017-07-17T00:03:12.816Z,937.87
2017-07-17T00:03:40.853Z,937.9
2017-07-17T00:04:08.863Z,937.91
2017-07-17T00:04:36.997Z,937.91
2017-07-17T00:05:05.205Z,937.88
2017-07-17T00:05:33.100Z,937.89
2017-07-17T00:06:01.023Z,937.92
2017-07-17T00:06:29.072Z,937.92
2017-07-17T00:06:58.609Z,937.93
2017-07-17T00:07:26.621Z,937.93
2017-07-17T00:07:54.729Z,937.92
2017-07-17T00:08:22.653Z,937.93
2017-07-17T00:08:50.778Z,937.9
2017-07-17T00:09:18.706Z,937.93
2017-07-17T00:09:46.821Z,937.91
2017-07-17T00:10:14.861Z,937.91
2017-07-17T00:10:42.987Z,937.9
2017-07-17T00:11:10.898Z,937.91
2017-07-17T00:11:38.901Z,937.91
2017-07-17T00:12:06.938Z,937.91
2017-07-17T00:12:34.758Z,937.88
2017-07-17T00:13:02.746Z,937.87
2017-07-17T00:13:30.880Z,937.92
2017-07-17T00:13:58.993Z,937.9
2017-07-17T00:14:26.909Z,937.93
2017-07-17T00:14:55.036Z,937.91
2017-07-17T00:15:23.038Z,937.92
2017-07-17T00:15:51.060Z,937.93
2017-07-17T00:16:19.213Z,937.9
2017-07-17T00:16:47.108Z,937.94
2017-07-17T00:17:15.215Z,937.95
2017-07-17T00:17:43.134Z,937.91
2017-07-17T00:18:11.136Z,937.95
2017-07-17T00:18:39.370Z,937.93
2017-07-17T00:19:07.314Z,937.92
2017-07-17T00:19:35.330Z,937.9
2017-07-17T00:20:03.446Z,937.89
2017-07-17T00:20:31.460Z,937.92
2017-07-17T00:20:59.470Z,937.93
2017-07-17T00:21:27.945Z,937.97
2017-07-17T00:21:55.952Z,937.95
2017-07-17T00:22:23.990Z,937.95
2017-07-17T00:22:51.606Z,937.97
2017-07-17T00:23:19.499Z,937.94
2017-07-17T00:23:47.431Z,937.96
2017-07-17T00:24:15.345Z,937.98
2017-07-17T00:24:43.376Z,938
2017-07-17T00:25:11.413Z,937.98
2017-07-17T00:25:39.527Z,937.97
2017-07-17T00:26:07.527Z,938.01
2017-07-17T00:26:35.559Z,937.99
2017-07-17T00:27:03.569Z,938.03
2017-07-17T00:27:31.581Z,937.97
2017-07-17T00:27:59.590Z,937.95
2017-07-17T00:28:27.727Z,937.92
2017-07-17T00:28:55.656Z,937.98
2017-07-17T00:29:23.797Z,937.96
2017-07-17T00:29:51.817Z,937.95
2017-07-17T00:30:19.829Z,937.97
2017-07-17T00:30:49.618Z,937.97
2017-07-17T00:31:17.862Z,937.96
2017-07-17T00:31:46.056Z,937.98
2017-07-17T00:32:14.080Z,937.98
2017-07-17T00:32:42.745Z,937.98
2017-07-17T00:33:11.226Z,937.98
2017-07-17T00:33:39.229Z,938
2017-07-17T00:34:07.150Z,938
2017-07-17T00:34:35.180Z,937.97
2017-07-17T00:35:03.169Z,937.98
2017-07-17T00:35:31.070Z,937.99
2017-07-17T00:35:59.075Z,938.01
2017-07-17T00:36:26.982Z,938.02
2017-07-17T00:36:54.895Z,937.98
2017-07-17T00:37:23.020Z,938
2017-07-17T00:37:51.060Z,938.02
2017-07-17T00:38:18.971Z,938.01
2017-07-17T00:38:47.200Z,937.99
2017-07-17T00:39:15.225Z,938.03
2017-07-17T00:39:43.356Z,938.03
2017-07-17T00:40:11.491Z,938.04
2017-07-17T00:40:39.509Z,938.04
2017-07-17T00:41:07.530Z,938.02
2017-07-17T00:41:35.579Z,938.07
2017-07-17T00:42:03.619Z,938.05
2017-07-17T00:42:31.752Z,938.04
2017-07-17T00:42:59.673Z,938.06
2017-07-17T00:43:28.037Z,938.08
2017-07-17T00:43:56.050Z,938.08
2017-07-17T00:44:24.073Z,938.08
2017-07-17T00:44:52.093Z,938.08
2017-07-17T00:45:19.989Z,938.06
2017-07-17T00:45:47.829Z,938.1
2017-07-17T00:46:15.761Z,938.07
2017-07-17T00:46:43.782Z,938.07
2017-07-17T00:47:11.820Z,938.06
2017-07-17T00:47:39.960Z,938.06
2017-07-17T00:48:07.887Z,938.06
2017-07-17T00:48:36.005Z,938.07
2017-07-17T00:49:04.016Z,938.07
2017-07-17T00:49:32.139Z,938.04
2017-07-17T00:50:00.268Z,938.06
2017-07-17T00:50:28.361Z,938.06
2017-07-17T00:50:56.276Z,938.07
2017-07-17T00:51:24.299Z,938.06
2017-07-17T00:51:52.217Z,938.07
2017-07-17T00:52:20.118Z,938.09
2017-07-17T00:52:48.042Z,938.05
2017-07-17T00:53:16.066Z,938.09
2017-07-17T00:53:44.187Z,938.06
2017-07-17T00:54:12.123Z,938.03
2017-07-17T00:54:40.036Z,938.05
2017-07-17T00:55:08.032Z,938.1
2017-07-17T00:55:35.950Z,938.1
2017-07-17T00:56:04.074Z,938.12
2017-07-17T00:56:32.105Z,938.1
2017-07-17T00:57:00.040Z,938.13
2017-07-17T00:57:28.051Z,938.13
2017-07-17T00:57:55.980Z,938.13
2017-07-17T00:58:23.995Z,938.1
2017-07-17T00:58:52.133Z,938.1
2017-07-17T00:59:20.044Z,938.09
2017-07-17T00:59:48.051Z,938.09
2017-07-17T01:00:16.089Z,938.11
2017-07-17T01:00:44.195Z,938.16
2017-07-17T01:01:12.151Z,938.09
2017-07-17T01:01:40.277Z,938.13
2017-07-17T01:02:08.292Z,938.12
2017-07-17T01:02:36.262Z,938.12
2017-07-17T01:03:04.290Z,938.11
2017-07-17T01:03:32.405Z,938.12
2017-07-17T01:04:00.521Z,938.11
2017-07-17T01:04:28.637Z,938.14
2017-07-17T01:04:56.470Z,938.12
2017-07-17T01:05:24.498Z,938.1
2017-07-17T01:05:52.621Z,938.13
2017-07-17T01:06:20.525Z,938.12
2017-07-17T01:06:48.546Z,938.11
2017-07-17T01:07:16.670Z,938.11
2017-07-17T01:07:44.583Z,938.12
2017-07-17T01:08:12.612Z,938.08
2017-07-17T01:08:40.885Z,938.13
2017-07-17T01:09:08.877Z,938.14
2017-07-17T01:09:36.915Z,938.17
2017-07-17T01:10:04.913Z,938.15
2017-07-17T01:10:33.023Z,938.12
2017-07-17T01:11:01.156Z,938.13
2017-07-17T01:11:29.276Z,938.14
2017-07-17T01:11:57.290Z,938.13
2017-07-17T01:12:25.415Z,938.12
2017-07-17T01:12:53.447Z,938.13
2017-07-17T01:13:21.474Z,938.16
2017-07-17T01:13:49.605Z,938.14
2017-07-17T01:14:17.736Z,938.14
2017-07-17T01:14:45.859Z,938.13
2017-07-17T01:15:13.991Z,938.13
2017-07-17T01:15:42.031Z,938.11
2017-07-17T01:16:10.173Z,938.14
2017-07-17T01:16:37.975Z,938.11
2017-07-17T01:17:06.080Z,938.14
2017-07-17T01:17:34.081Z,938.11
2017-07-17T01:18:02.192Z,938.11
2017-07-17T01:18:30.036Z,938.1
2017-07-17T01:18:58.420Z,938.06
2017-07-17T01:19:26.541Z,938.11
2017-07-17T01:20:09.157Z,938.09
2017-07-17T01:20:37.193Z,938.11
2017-07-17T01:21:05.244Z,938.15
2017-07-17T01:21:33.174Z,938.12
2017-07-17T01:22:01.283Z,938.11
2017-07-17T01:22:29.410Z,938.11
2017-07-17T01:22:57.123Z,938.08
2017-07-17T01:23:25.284Z,938.08
2017-07-17T01:23:53.197Z,938.08
2017-07-17T01:24:20.918Z,938.05
2017-07-17T01:24:48.842Z,938.06
2017-07-17T01:25:16.890Z,938.09
2017-07-17T01:25:45.042Z,938.08
2017-07-17T01:26:12.976Z,938.1
2017-07-17T01:26:41.091Z,938.1
2017-07-17T01:27:09.025Z,938.11
2017-07-17T01:27:37.246Z,938.1
2017-07-17T01:28:05.358Z,938.08
2017-07-17T01:28:33.463Z,938.08
2017-07-17T01:29:01.474Z,938.09
2017-07-17T01:29:29.481Z,938.09
2017-07-17T01:29:57.576Z,938.08
2017-07-17T01:30:25.296Z,938.07
2017-07-17T01:30:53.429Z,938.1
2017-07-17T01:31:21.474Z,938.07
2017-07-17T01:31:49.612Z,938.08
2017-07-17T01:32:17.539Z,938.07
2017-07-17T01:32:45.559Z,938.08
2017-07-17T01:33:13.695Z,938.06
2017-07-17T01:33:41.818Z,938.07
2017-07-17T01:34:09.741Z,938.03
2017-07-17T01:34:37.747Z,938.07
2017-07-17T01:35:05.782Z,938.07
2017-07-17T01:35:33.593Z,938.08
2017-07-17T01:36:01.593Z,938.06
2017-07-17T01:36:29.620Z,938.08
2017-07-17T01:36:58.073Z,938.08
2017-07-17T01:37:26.971Z,938.04
2017-07-17T01:37:54.908Z,938.08
2017-07-17T01:38:22.918Z,938.09
2017-07-17T01:38:50.830Z,938.02
2017-07-17T01:39:18.831Z,938.04
2017-07-17T01:39:46.753Z,938.05
2017-07-17T01:40:14.765Z,938.05
2017-07-17T01:40:42.690Z,938.07
2017-07-17T01:41:10.708Z,938.03
2017-07-17T01:41:38.624Z,938.01
2017-07-17T01:42:06.742Z,937.98
2017-07-17T01:42:34.650Z,937.98
2017-07-17T01:43:02.738Z,938
2017-07-17T01:43:30.735Z,938.01
2017-07-17T01:43:58.843Z,938.01
2017-07-17T01:44:26.953Z,938.01
2017-07-17T01:44:55.078Z,938.07
2017-07-17T01:45:23.086Z,938
2017-07-17T01:45:50.999Z,937.99
2017-07-17T01:46:19.037Z,938.01
2017-07-17T01:46:47.080Z,938.02
2017-07-17T01:47:15.027Z,937.99
2017-07-17T01:47:43.135Z,938.02
2017-07-17T01:48:11.254Z,937.97
2017-07-17T01:48:39.173Z,937.99
2017-07-17T01:49:07.530Z,937.97
2017-07-17T01:49:35.776Z,937.96
2017-07-17T01:50:03.883Z,937.96
2017-07-17T01:50:31.890Z,937.96
2017-07-17T01:50:59.931Z,937.94
2017-07-17T01:51:27.947Z,937.97
2017-07-17T01:51:55.865Z,937.99
2017-07-17T01:52:24.066Z,937.95
2017-07-17T01:52:52.000Z,937.97
2017-07-17T01:53:20.005Z,937.97
2017-07-17T01:53:48.111Z,937.96
2017-07-17T01:54:16.142Z,937.96
2017-07-17T01:54:44.060Z,937.97
2017-07-17T01:55:12.122Z,937.94
2017-07-17T01:55:40.156Z,937.94
2017-07-17T01:56:08.178Z,937.95
2017-07-17T01:56:36.287Z,937.93
2017-07-17T01:57:04.317Z,937.95
2017-07-17T01:57:32.360Z,937.94
2017-07-17T01:58:00.294Z,937.9
2017-07-17T01:58:28.216Z,937.96
2017-07-17T01:58:56.242Z,937.95
2017-07-17T01:59:24.342Z,937.95
2017-07-17T01:59:52.668Z,937.92
2017-07-17T02:00:20.676Z,937.9
2017-07-17T02:00:48.589Z,937.95
2017-07-17T02:01:16.604Z,937.89
2017-07-17T02:01:44.421Z,937.92
2017-07-17T02:02:12.525Z,937.95
2017-07-17T02:02:40.555Z,937.93
2017-07-17T02:03:08.586Z,937.93
2017-07-17T02:03:36.695Z,937.95
2017-07-17T02:04:05.809Z,937.93
2017-07-17T02:04:33.735Z,937.92
2017-07-17T02:05:01.700Z,937.95
2017-07-17T02:05:29.816Z,937.93
2017-07-17T02:05:57.734Z,937.93
2017-07-17T02:06:25.666Z,937.96
2017-07-17T02:06:54.103Z,937.94
2017-07-17T02:07:22.118Z,937.93
2017-07-17T02:07:50.119Z,937.92
2017-07-17T02:08:18.075Z,937.92
2017-07-17T02:08:46.089Z,937.93
2017-07-17T02:09:14.095Z,937.95
2017-07-17T02:09:41.921Z,937.92
2017-07-17T02:10:10.171Z,937.94
2017-07-17T02:10:37.902Z,937.93
2017-07-17T02:11:05.838Z,937.94
2017-07-17T02:11:33.858Z,937.95
2017-07-17T02:12:01.984Z,937.96
2017-07-17T02:12:30.007Z,937.92
2017-07-17T02:12:58.142Z,937.94
2017-07-17T02:13:26.144Z,937.96
2017-07-17T02:13:54.473Z,937.98
2017-07-17T02:14:22.521Z,937.97
2017-07-17T02:14:50.343Z,937.96
2017-07-17T02:15:18.479Z,937.94
2017-07-17T02:15:46.807Z,937.99
2017-07-17T02:16:14.827Z,937.99
2017-07-17T02:16:42.950Z,937.98
2017-07-17T02:17:10.986Z,937.97
2017-07-17T02:17:38.793Z,937.97
2017-07-17T02:18:06.824Z,937.98
2017-07-17T02:18:34.938Z,937.99
2017-07-17T02:19:02.964Z,938
2017-07-17T02:19:30.779Z,937.98
2017-07-17T02:19:58.881Z,938.01
2017-07-17T02:20:26.820Z,937.93
2017-07-17T02:20:54.840Z,937.93
2017-07-17T02:21:22.954Z,937.95
2017-07-17T02:21:50.964Z,937.92
2017-07-17T02:22:18.966Z,937.92
2017-07-17T02:22:46.871Z,937.94
2017-07-17T02:23:14.895Z,937.95
2017-07-17T02:23:42.793Z,937.94
2017-07-17T02:24:10.735Z,937.94
2017-07-17T02:24:38.846Z,937.96
2017-07-17T02:25:06.870Z,937.97
2017-07-17T02:25:34.989Z,937.94
2017-07-17T02:26:03.110Z,937.96
2017-07-17T02:26:31.232Z,937.95
2017-07-17T02:26:59.354Z,937.97
2017-07-17T02:27:27.407Z,938
2017-07-17T02:27:55.439Z,937.97
2017-07-17T02:28:23.352Z,937.98
2017-07-17T02:28:51.377Z,937.99
2017-07-17T02:29:19.493Z,938
2017-07-17T02:29:47.583Z,938.04
2017-07-17T02:30:15.586Z,938.04
2017-07-17T02:30:43.712Z,938.01
2017-07-17T02:31:11.923Z,938.07
2017-07-17T02:31:40.026Z,938.04
2017-07-17T02:32:07.935Z,938.04
2017-07-17T02:32:35.966Z,938.04
2017-07-17T02:33:18.469Z,938.04
2017-07-17T02:33:46.498Z,938.06
2017-07-17T02:34:14.620Z,938.02
2017-07-17T02:34:42.649Z,938.03
2017-07-17T02:35:10.629Z,938.03
2017-07-17T02:35:38.571Z,938.02
2017-07-17T02:36:06.798Z,938.02
2017-07-17T02:36:34.826Z,937.99
2017-07-17T02:37:02.856Z,937.99
2017-07-17T02:37:30.892Z,937.97
2017-07-17T02:37:59.032Z,937.96
2017-07-17T02:38:26.827Z,937.95
2017-07-17T02:38:54.861Z,937.99
2017-07-17T02:39:22.880Z,937.99
2017-07-17T02:39:50.910Z,937.95
2017-07-17T02:40:18.636Z,937.95
2017-07-17T02:40:46.575Z,937.96
2017-07-17T02:41:14.475Z,937.94
2017-07-17T02:41:42.562Z,937.96
2017-07-17T02:42:10.573Z,937.93
2017-07-17T02:42:38.620Z,937.92
2017-07-17T02:43:06.558Z,937.93
2017-07-17T02:43:34.579Z,937.96
2017-07-17T02:44:02.691Z,937.94
2017-07-17T02:44:30.936Z,937.92
2017-07-17T02:44:59.052Z,937.91
2017-07-17T02:45:26.978Z,937.9
2017-07-17T02:45:54.877Z,937.93
2017-07-17T02:46:22.697Z,937.92
2017-07-17T02:46:50.686Z,937.9
2017-07-17T02:47:18.606Z,937.89
2017-07-17T02:47:46.522Z,937.9
2017-07-17T02:48:14.431Z,937.88
2017-07-17T02:48:42.323Z,937.92
2017-07-17T02:49:10.583Z,937.92
2017-07-17T02:49:38.504Z,937.93
2017-07-17T02:50:06.619Z,937.88
2017-07-17T02:50:34.647Z,937.89
2017-07-17T02:51:02.665Z,937.88
2017-07-17T02:51:30.575Z,937.91
2017-07-17T02:51:58.593Z,937.87
2017-07-17T02:52:26.390Z,937.9
2017-07-17T02:52:54.518Z,937.9
2017-07-17T02:53:22.553Z,937.91
2017-07-17T02:53:50.570Z,937.89
2017-07-17T02:54:18.401Z,937.9
2017-07-17T02:54:46.301Z,937.89
2017-07-17T02:55:14.456Z,937.89
2017-07-17T02:55:42.468Z,937.9
2017-07-17T02:56:10.494Z,937.92
2017-07-17T02:56:38.429Z,937.88
2017-07-17T02:57:06.566Z,937.88
2017-07-17T02:57:34.595Z,937.9
2017-07-17T02:58:02.623Z,937.88
2017-07-17T02:58:30.742Z,937.89
2017-07-17T02:58:58.689Z,937.86
2017-07-17T02:59:26.504Z,937.83
2017-07-17T02:59:54.524Z,937.84
2017-07-17T03:00:22.311Z,937.83
2017-07-17T03:00:50.407Z,937.84
2017-07-17T03:01:18.542Z,937.86
2017-07-17T03:01:46.695Z,937.82
2017-07-17T03:02:14.707Z,937.83
2017-07-17T03:02:42.729Z,937.84
2017-07-17T03:03:10.851Z,937.83
2017-07-17T03:03:38.769Z,937.82
2017-07-17T03:04:06.687Z,937.84
2017-07-17T03:04:34.725Z,937.84
2017-07-17T03:05:02.837Z,937.84
2017-07-17T03:05:30.772Z,937.85
2017-07-17T03:05:58.833Z,937.84
2017-07-17T03:06:26.759Z,937.85
2017-07-17T03:06:54.768Z,937.85
2017-07-17T03:07:22.793Z,937.86
2017-07-17T03:07:50.725Z,937.89
2017-07-17T03:08:18.640Z,937.86
2017-07-17T03:08:46.754Z,937.83
2017-07-17T03:09:14.890Z,937.86
2017-07-17T03:09:43.123Z,937.81
2017-07-17T03:10:11.208Z,937.83
2017-07-17T03:10:39.213Z,937.85
2017-07-17T03:11:07.341Z,937.88
2017-07-17T03:11:35.363Z,937.88
2017-07-17T03:12:03.170Z,937.84
2017-07-17T03:12:31.185Z,937.85
2017-07-17T03:12:58.994Z,937.85
2017-07-17T03:13:27.018Z,937.86
2017-07-17T03:13:55.044Z,937.87
2017-07-17T03:14:23.172Z,937.85
2017-07-17T03:14:51.019Z,937.82
2017-07-17T03:15:18.927Z,937.86
2017-07-17T03:15:47.038Z,937.86
2017-07-17T03:16:14.966Z,937.88
2017-07-17T03:16:42.990Z,937.88
2017-07-17T03:17:11.131Z,937.91
2017-07-17T03:17:39.017Z,937.9
2017-07-17T03:18:07.036Z,937.93
2017-07-17T03:18:35.171Z,937.97
2017-07-17T03:19:03.096Z,937.95
2017-07-17T03:19:31.336Z,937.95
2017-07-17T03:19:59.358Z,937.97
2017-07-17T03:20:27.375Z,937.96
2017-07-17T03:20:55.505Z,937.93
2017-07-17T03:21:23.535Z,937.95
2017-07-17T03:21:51.570Z,937.96
2017-07-17T03:22:19.518Z,937.97
2017-07-17T03:22:47.521Z,937.96
2017-07-17T03:23:15.336Z,937.92
2017-07-17T03:23:43.157Z,937.92
2017-07-17T03:24:10.995Z,937.92
2017-07-17T03:24:39.023Z,937.93
2017-07-17T03:25:06.931Z,937.93
2017-07-17T03:25:34.870Z,937.91
2017-07-17T03:26:02.763Z,937.91
2017-07-17T03:26:30.759Z,937.94
2017-07-17T03:26:58.683Z,937.93
2017-07-17T03:27:26.483Z,937.97
2017-07-17T03:27:54.518Z,937.93
2017-07-17T03:28:22.441Z,937.95
2017-07-17T03:28:50.569Z,937.94
2017-07-17T03:29:18.478Z,937.88
2017-07-17T03:29:46.285Z,937.91
2017-07-17T03:30:14.096Z,937.91
2017-07-17T03:30:41.833Z,937.89
2017-07-17T03:31:09.868Z,937.91
2017-07-17T03:31:37.895Z,937.91
2017-07-17T03:32:05.816Z,937.87
2017-07-17T03:32:33.841Z,937.88
2017-07-17T03:33:01.740Z,937.89
2017-07-17T03:33:29.845Z,937.89
2017-07-17T03:33:57.953Z,937.88
2017-07-17T03:34:25.981Z,937.89
2017-07-17T03:34:54.189Z,937.9
2017-07-17T03:35:22.306Z,937.87
2017-07-17T03:35:50.408Z,937.88
2017-07-17T03:36:18.450Z,937.84
2017-07-17T03:36:46.262Z,937.88
2017-07-17T03:37:14.288Z,937.88
2017-07-17T03:37:42.406Z,937.84
2017-07-17T03:38:10.438Z,937.84
2017-07-17T03:38:38.447Z,937.85
2017-07-17T03:39:06.574Z,937.85
2017-07-17T03:39:34.893Z,937.92
2017-07-17T03:40:03.005Z,937.9
2017-07-17T03:40:31.032Z,937.86
2017-07-17T03:40:58.965Z,937.9
2017-07-17T03:41:26.982Z,937.88
2017-07-17T03:41:55.112Z,937.9
2017-07-17T03:42:23.251Z,937.87
2017-07-17T03:42:51.182Z,937.84
2017-07-17T03:43:19.075Z,937.89
2017-07-17T03:43:47.094Z,937.85
2017-07-17T03:44:15.100Z,937.86
2017-07-17T03:44:43.192Z,937.88
2017-07-17T03:45:11.116Z,937.92
2017-07-17T03:45:39.136Z,937.89
2017-07-17T03:46:07.071Z,937.87
2017-07-17T03:46:34.989Z,937.88
2017-07-17T03:47:03.107Z,937.89
2017-07-17T03:47:30.931Z,937.88
2017-07-17T03:47:58.857Z,937.91
2017-07-17T03:48:26.687Z,937.85
2017-07-17T03:48:54.839Z,937.87
2017-07-17T03:49:22.837Z,937.84
2017-07-17T03:49:51.101Z,937.86
2017-07-17T03:50:18.930Z,937.88
2017-07-17T03:50:47.064Z,937.87
2017-07-17T03:51:14.910Z,937.89
2017-07-17T03:51:42.943Z,937.85
2017-07-17T03:52:10.959Z,937.86
2017-07-17T03:52:38.880Z,937.87
2017-07-17T03:53:07.018Z,937.86
2017-07-17T03:53:35.038Z,937.87
2017-07-17T03:54:02.860Z,937.86
2017-07-17T03:54:30.874Z,937.86
2017-07-17T03:54:59.018Z,937.81
2017-07-17T03:55:26.908Z,937.85
2017-07-17T03:55:55.032Z,937.84
2017-07-17T03:56:23.051Z,937.82
2017-07-17T03:56:51.073Z,937.83
2017-07-17T03:57:19.094Z,937.8
2017-07-17T03:57:47.230Z,937.82
2017-07-17T03:58:15.279Z,937.84
2017-07-17T03:58:43.121Z,937.82
2017-07-17T03:59:11.231Z,937.84
2017-07-17T03:59:39.066Z,937.8
2017-07-17T04:00:07.190Z,937.8
2017-07-17T04:00:35.202Z,937.81
2017-07-17T04:01:03.221Z,937.8
2017-07-17T04:01:31.275Z,937.82
2017-07-17T04:01:59.378Z,937.79
2017-07-17T04:02:27.489Z,937.83
2017-07-17T04:02:55.618Z,937.84
2017-07-17T04:03:23.537Z,937.77
2017-07-17T04:03:51.676Z,937.76
2017-07-17T04:04:19.689Z,937.79
2017-07-17T04:04:47.818Z,937.75
2017-07-17T04:05:15.828Z,937.76
2017-07-17T04:05:43.856Z,937.74
2017-07-17T04:06:11.969Z,937.73
2017-07-17T04:06:39.999Z,937.76
2017-07-17T04:07:08.022Z,937.74
2017-07-17T04:07:36.153Z,937.69
2017-07-17T04:08:04.278Z,937.76
2017-07-17T04:08:32.293Z,937.73
2017-07-17T04:09:00.198Z,937.7
2017-07-17T04:09:28.082Z,937.73
2017-07-17T04:09:56.235Z,937.72
2017-07-17T04:10:24.360Z,937.71
2017-07-17T04:10:52.349Z,937.7
2017-07-17T04:11:20.190Z,937.75
2017-07-17T04:11:48.291Z,937.74
2017-07-17T04:12:16.409Z,937.76
2017-07-17T04:12:44.292Z,937.74
2017-07-17T04:13:12.415Z,937.74
2017-07-17T04:13:40.478Z,937.72
2017-07-17T04:14:08.493Z,937.73
2017-07-17T04:14:36.607Z,937.75
2017-07-17T04:15:04.817Z,937.73
2017-07-17T04:15:32.739Z,937.73
2017-07-17T04:16:00.746Z,937.73
2017-07-17T04:16:28.880Z,937.77
2017-07-17T04:16:56.912Z,937.77
2017-07-17T04:17:24.828Z,937.77
2017-07-17T04:17:52.845Z,937.8
2017-07-17T04:18:20.888Z,937.79
2017-07-17T04:18:48.983Z,937.8
2017-07-17T04:19:16.796Z,937.85
2017-07-17T04:19:44.840Z,937.85
2017-07-17T04:20:13.153Z,937.82
2017-07-17T04:20:41.194Z,937.82
2017-07-17T04:21:09.339Z,937.85
2017-07-17T04:21:37.350Z,937.86
2017-07-17T04:22:05.389Z,937.84
2017-07-17T04:22:33.198Z,937.9
2017-07-17T04:23:00.932Z,937.89
2017-07-17T04:23:28.757Z,937.84
2017-07-17T04:23:56.706Z,937.86
2017-07-17T04:24:24.824Z,937.82
2017-07-17T04:24:52.854Z,937.85
2017-07-17T04:25:21.141Z,937.83
2017-07-17T04:25:49.147Z,937.85
2017-07-17T04:26:17.179Z,937.9
2017-07-17T04:26:45.125Z,937.84
2017-07-17T04:27:12.937Z,937.84
2017-07-17T04:27:40.958Z,937.84
2017-07-17T04:28:08.778Z,937.82
2017-07-17T04:28:36.676Z,937.86
2017-07-17T04:29:04.706Z,937.84
2017-07-17T04:29:32.559Z,937.84
2017-07-17T04:30:00.551Z,937.86
2017-07-17T04:30:28.468Z,937.9
2017-07-17T04:30:56.528Z,937.87
2017-07-17T04:31:24.527Z,937.86
2017-07-17T04:31:52.556Z,937.88
2017-07-17T04:32:20.585Z,937.87
2017-07-17T04:32:48.485Z,937.9
2017-07-17T04:33:16.405Z,937.92
2017-07-17T04:33:44.548Z,937.88
2017-07-17T04:34:12.701Z,937.92
2017-07-17T04:34:40.690Z,937.91
2017-07-17T04:35:08.802Z,937.9
2017-07-17T04:35:36.811Z,937.9
2017-07-17T04:36:05.131Z,937.91
2017-07-17T04:36:33.039Z,937.95
2017-07-17T04:37:01.044Z,937.95
2017-07-17T04:37:29.106Z,937.95
2017-07-17T04:37:57.226Z,937.96
2017-07-17T04:38:25.337Z,937.97
2017-07-17T04:38:53.147Z,937.97
2017-07-17T04:39:21.267Z,937.97
2017-07-17T04:39:49.200Z,937.95
2017-07-17T04:40:17.350Z,937.98
2017-07-17T04:40:45.165Z,937.93
2017-07-17T04:41:13.085Z,937.95
2017-07-17T04:41:41.101Z,937.91
2017-07-17T04:42:09.033Z,937.93
2017-07-17T04:42:36.985Z,937.96
2017-07-17T04:43:05.003Z,937.94
2017-07-17T04:43:33.036Z,937.93
2017-07-17T04:44:01.147Z,937.94
2017-07-17T04:44:29.045Z,937.91
2017-07-17T04:44:57.176Z,937.94
2017-07-17T04:45:25.311Z,937.9
2017-07-17T04:45:53.047Z,937.89
2017-07-17T04:46:20.987Z,937.9
2017-07-17T04:46:49.145Z,937.91
2017-07-17T04:47:17.080Z,937.9
2017-07-17T04:47:45.115Z,937.89
2017-07-17T04:48:13.209Z,937.89
2017-07-17T04:48:41.361Z,937.9
2017-07-17T04:49:09.504Z,937.91
2017-07-17T04:49:37.639Z,937.87
2017-07-17T04:50:05.933Z,937.89
2017-07-17T04:50:33.835Z,937.9
2017-07-17T04:51:01.866Z,937.9
2017-07-17T04:51:29.783Z,937.9
2017-07-17T04:51:57.909Z,937.89
2017-07-17T04:52:26.037Z,937.91
2017-07-17T04:52:54.062Z,937.9
2017-07-17T04:53:22.091Z,937.99
2017-07-17T04:53:50.249Z,937.98
2017-07-17T04:54:18.399Z,937.96
2017-07-17T04:54:46.309Z,937.99
2017-07-17T04:55:14.324Z,937.95
2017-07-17T04:55:42.259Z,937.97
2017-07-17T04:56:10.185Z,937.96
2017-07-17T04:56:38.102Z,938
2017-07-17T04:57:06.113Z,938
2017-07-17T04:57:34.241Z,937.97
2017-07-17T04:58:02.367Z,938.01
2017-07-17T04:58:30.383Z,937.97
2017-07-17T04:58:58.428Z,937.98
2017-07-17T04:59:26.367Z,937.98
2017-07-17T04:59:54.479Z,937.95
2017-07-17T05:00:22.592Z,937.96
2017-07-17T05:00:50.729Z,937.94
2017-07-17T05:01:18.673Z,937.92
2017-07-17T05:01:46.824Z,937.9
2017-07-17T05:02:14.913Z,937.93
2017-07-17T05:02:42.922Z,937.91
2017-07-17T05:03:11.062Z,937.9
2017-07-17T05:03:39.182Z,937.88
2017-07-17T05:04:07.212Z,937.88
2017-07-17T05:04:35.113Z,937.85
2017-07-17T05:05:03.154Z,937.88
2017-07-17T05:05:31.277Z,937.84
2017-07-17T05:05:59.274Z,937.86
2017-07-17T05:06:27.167Z,937.87
2017-07-17T05:06:55.195Z,937.85
2017-07-17T05:07:22.920Z,937.82
2017-07-17T05:07:50.745Z,937.85
2017-07-17T05:08:18.868Z,937.81
2017-07-17T05:08:46.794Z,937.83
2017-07-17T05:09:14.883Z,937.83
2017-07-17T05:09:42.905Z,937.83
2017-07-17T05:10:11.252Z,937.85
2017-07-17T05:10:39.084Z,937.85
2017-07-17T05:11:07.095Z,937.85
2017-07-17T05:11:35.119Z,937.87
2017-07-17T05:12:03.159Z,937.85
2017-07-17T05:12:31.106Z,937.87
2017-07-17T05:12:59.203Z,937.84
2017-07-17T05:13:27.129Z,937.86
2017-07-17T05:13:55.240Z,937.82
2017-07-17T05:14:23.165Z,937.83
2017-07-17T05:14:51.302Z,937.82
2017-07-17T05:15:19.366Z,937.85
2017-07-17T05:15:47.385Z,937.83
2017-07-17T05:16:15.385Z,937.79
2017-07-17T05:16:43.541Z,937.83
2017-07-17T05:17:11.464Z,937.83
2017-07-17T05:17:39.601Z,937.85
2017-07-17T05:18:07.626Z,937.84
2017-07-17T05:18:35.770Z,937.86
2017-07-17T05:19:03.880Z,937.87
2017-07-17T05:19:31.837Z,937.87
2017-07-17T05:19:59.749Z,937.91
2017-07-17T05:20:27.814Z,937.93
2017-07-17T05:20:55.829Z,937.96
2017-07-17T05:21:23.859Z,937.95
2017-07-17T05:21:51.971Z,937.9
2017-07-17T05:22:20.009Z,937.89
2017-07-17T05:22:47.817Z,937.89
2017-07-17T05:23:15.725Z,937.92
2017-07-17T05:23:43.558Z,937.91
2017-07-17T05:24:11.674Z,937.88
2017-07-17T05:24:39.705Z,937.92
2017-07-17T05:25:07.807Z,937.87
2017-07-17T05:25:35.817Z,937.85
2017-07-17T05:26:03.742Z,937.87
2017-07-17T05:26:31.647Z,937.86
2017-07-17T05:26:59.660Z,937.91
2017-07-17T05:27:27.688Z,937.86
2017-07-17T05:27:55.694Z,937.87
2017-07-17T05:28:23.713Z,937.88
2017-07-17T05:28:51.740Z,937.84
2017-07-17T05:29:19.890Z,937.84
2017-07-17T05:29:48.003Z,937.84
2017-07-17T05:30:15.905Z,937.8
2017-07-17T05:30:43.933Z,937.82
2017-07-17T05:31:11.875Z,937.8
2017-07-17T05:31:39.884Z,937.8
2017-07-17T05:32:08.041Z,937.85
2017-07-17T05:32:36.049Z,937.85
2017-07-17T05:33:03.969Z,937.84
2017-07-17T05:33:32.110Z,937.83
2017-07-17T05:34:00.237Z,937.82
2017-07-17T05:34:28.273Z,937.86
2017-07-17T05:34:56.425Z,937.86
2017-07-17T05:35:24.518Z,937.83
2017-07-17T05:35:52.457Z,937.85
2017-07-17T05:36:20.585Z,937.84
2017-07-17T05:36:48.617Z,937.84
2017-07-17T05:37:16.514Z,937.83
2017-07-17T05:37:44.531Z,937.83
2017-07-17T05:38:12.443Z,937.84
2017-07-17T05:38:40.482Z,937.78
2017-07-17T05:39:08.588Z,937.77
2017-07-17T05:39:36.598Z,937.79
2017-07-17T05:40:04.720Z,937.71
2017-07-17T05:40:32.822Z,937.74
2017-07-17T05:41:00.855Z,937.74
2017-07-17T05:41:28.879Z,937.72
2017-07-17T05:41:56.825Z,937.71
2017-07-17T05:42:24.865Z,937.7
2017-07-17T05:42:52.896Z,937.71
2017-07-17T05:43:20.911Z,937.69
2017-07-17T05:43:49.045Z,937.71
2017-07-17T05:44:17.158Z,937.71
2017-07-17T05:44:45.074Z,937.72
2017-07-17T05:45:12.903Z,937.72
2017-07-17T05:45:41.031Z,937.67
2017-07-17T05:46:09.053Z,937.65
2017-07-17T05:46:37.075Z,937.64
2017-07-17T05:47:04.985Z,937.67
2017-07-17T05:47:32.829Z,937.68
2017-07-17T05:48:00.655Z,937.69
2017-07-17T05:48:28.583Z,937.69
2017-07-17T05:48:56.673Z,937.71
2017-07-17T05:49:24.789Z,937.69
2017-07-17T05:49:52.742Z,937.71
2017-07-17T05:50:20.896Z,937.7
2017-07-17T05:50:49.249Z,937.72
2017-07-17T05:51:17.163Z,937.72
2017-07-17T05:51:45.276Z,937.67